sensor_id;sensor_type;location;lat;lon;timestamp;pressure;altitude;pressure_sealevel;temperature;humidity
31239;BME280;17871;31.584;74.450;2023-03-13T00:04:04;98722.84;;;22.99;76.70
31239;BME280;17871;31.584;74.450;2023-03-13T00:06:33;98733.75;;;22.87;76.71
31239;BME280;17871;31.584;74.450;2023-03-13T00:09:04;98731.88;;;22.90;76.95
31239;BME280;17871;31.584;74.450;2023-03-13T00:11:33;98728.53;;;22.87;76.49
31239;BME280;17871;31.584;74.450;2023-03-13T00:14:03;98729.50;;;22.84;76.80
31239;BME280;17871;31.584;74.450;2023-03-13T00:16:32;98731.91;;;22.89;76.48
31239;BME280;17871;31.584;74.450;2023-03-13T00:19:06;98740.69;;;22.86;76.75
31239;BME280;17871;31.584;74.450;2023-03-13T00:21:35;98736.31;;;22.88;76.39
31239;BME280;17871;31.584;74.450;2023-03-13T00:24:09;98732.38;;;22.77;77.45
31239;BME280;17871;31.584;74.450;2023-03-13T00:26:39;98744.66;;;22.73;76.94
31239;BME280;17871;31.584;74.450;2023-03-13T00:29:08;98744.84;;;22.68;77.01
31239;BME280;17871;31.584;74.450;2023-03-13T00:31:37;98749.13;;;22.69;77.60
31239;BME280;17871;31.584;74.450;2023-03-13T00:34:06;98739.78;;;22.62;76.92
31239;BME280;17871;31.584;74.450;2023-03-13T00:36:36;98746.81;;;22.60;78.41
31239;BME280;17871;31.584;74.450;2023-03-13T00:39:05;98736.63;;;22.54;77.71
31239;BME280;17871;31.584;74.450;2023-03-13T00:41:35;98739.22;;;22.54;78.17
31239;BME280;17871;31.584;74.450;2023-03-13T00:44:04;98735.03;;;22.50;78.01
31239;BME280;17871;31.584;74.450;2023-03-13T00:46:33;98735.84;;;22.52;77.38
31239;BME280;17871;31.584;74.450;2023-03-13T00:49:03;98731.53;;;22.51;77.37
31239;BME280;17871;31.584;74.450;2023-03-13T00:51:33;98734.13;;;22.51;77.30
31239;BME280;17871;31.584;74.450;2023-03-13T00:54:01;98738.72;;;22.45;78.23
31239;BME280;17871;31.584;74.450;2023-03-13T00:56:32;98731.69;;;22.47;76.57
31239;BME280;17871;31.584;74.450;2023-03-13T00:59:01;98739.50;;;22.47;76.70
31239;BME280;17871;31.584;74.450;2023-03-13T01:01:31;98736.84;;;22.48;76.54
31239;BME280;17871;31.584;74.450;2023-03-13T01:04:06;98733.53;;;22.43;77.12
31239;BME280;17871;31.584;74.450;2023-03-13T01:06:38;98749.25;;;22.42;77.09
31239;BME280;17871;31.584;74.450;2023-03-13T01:09:10;98744.91;;;22.41;77.13
31239;BME280;17871;31.584;74.450;2023-03-13T01:11:41;98751.84;;;22.42;75.98
31239;BME280;17871;31.584;74.450;2023-03-13T01:14:17;98750.25;;;22.38;75.54
31239;BME280;17871;31.584;74.450;2023-03-13T01:16:47;98753.84;;;22.34;76.78
31239;BME280;17871;31.584;74.450;2023-03-13T01:19:16;98759.22;;;22.29;76.31
31239;BME280;17871;31.584;74.450;2023-03-13T01:21:46;98757.41;;;22.31;76.56
31239;BME280;17871;31.584;74.450;2023-03-13T01:24:15;98755.66;;;22.32;76.35
31239;BME280;17871;31.584;74.450;2023-03-13T01:26:45;98758.41;;;22.27;76.99
31239;BME280;17871;31.584;74.450;2023-03-13T01:29:15;98757.03;;;22.17;77.81
31239;BME280;17871;31.584;74.450;2023-03-13T01:31:44;98757.72;;;22.22;77.08
31239;BME280;17871;31.584;74.450;2023-03-13T01:34:13;98762.00;;;22.23;78.33
31239;BME280;17871;31.584;74.450;2023-03-13T01:36:43;98754.91;;;22.28;77.70
31239;BME280;17871;31.584;74.450;2023-03-13T01:39:13;98759.13;;;22.32;78.22
31239;BME280;17871;31.584;74.450;2023-03-13T01:41:42;98759.81;;;22.37;78.86
31239;BME280;17871;31.584;74.450;2023-03-13T01:44:17;98765.91;;;22.36;79.21
31239;BME280;17871;31.584;74.450;2023-03-13T01:46:48;98770.00;;;22.43;78.38
31239;BME280;17871;31.584;74.450;2023-03-13T01:49:25;98771.81;;;22.41;78.17
31239;BME280;17871;31.584;74.450;2023-03-13T01:54:57;98765.44;;;22.50;77.26
31239;BME280;17871;31.584;74.450;2023-03-13T02:02:39;98774.63;;;22.60;77.49
31239;BME280;17871;31.584;74.450;2023-03-13T02:05:10;98778.78;;;22.65;75.69
31239;BME280;17871;31.584;74.450;2023-03-13T02:07:40;98784.59;;;22.73;74.66
31239;BME280;17871;31.584;74.450;2023-03-13T02:10:11;98793.00;;;22.82;74.28
31239;BME280;17871;31.584;74.450;2023-03-13T02:12:42;98796.25;;;22.88;73.63
31239;BME280;17871;31.584;74.450;2023-03-13T02:15:12;98792.66;;;22.91;73.11
31239;BME280;17871;31.584;74.450;2023-03-13T02:17:45;98799.03;;;23.30;71.98
31239;BME280;17871;31.584;74.450;2023-03-13T02:20:15;98803.72;;;22.97;70.56
31239;BME280;17871;31.584;74.450;2023-03-13T02:25:47;98808.88;;;23.22;67.84
31239;BME280;17871;31.584;74.450;2023-03-13T02:28:11;98803.53;;;23.25;67.23
31239;BME280;17871;31.584;74.450;2023-03-13T02:30:42;98804.13;;;23.33;67.83
31239;BME280;17871;31.584;74.450;2023-03-13T02:33:12;98813.97;;;23.25;67.00
31239;BME280;17871;31.584;74.450;2023-03-13T02:35:43;98821.19;;;23.42;66.93
31239;BME280;17871;31.584;74.450;2023-03-13T02:38:16;98818.28;;;23.51;65.86
31239;BME280;17871;31.584;74.450;2023-03-13T02:40:48;98815.88;;;23.45;65.81
31239;BME280;17871;31.584;74.450;2023-03-13T02:43:21;98821.81;;;23.48;63.59
31239;BME280;17871;31.584;74.450;2023-03-13T02:48:37;98822.31;;;23.58;62.78
31239;BME280;17871;31.584;74.450;2023-03-13T02:51:12;98821.69;;;23.51;62.56
31239;BME280;17871;31.584;74.450;2023-03-13T02:53:43;98825.25;;;23.50;61.51
31239;BME280;17871;31.584;74.450;2023-03-13T02:56:13;98837.16;;;23.57;60.82
31239;BME280;17871;31.584;74.450;2023-03-13T02:58:43;98839.66;;;23.82;60.57
31239;BME280;17871;31.584;74.450;2023-03-13T03:01:21;98845.63;;;23.62;60.49
31239;BME280;17871;31.584;74.450;2023-03-13T03:03:50;98848.38;;;23.59;59.64
31239;BME280;17871;31.584;74.450;2023-03-13T03:06:19;98857.19;;;23.78;59.28
31239;BME280;17871;31.584;74.450;2023-03-13T03:08:49;98859.00;;;23.98;58.94
31239;BME280;17871;31.584;74.450;2023-03-13T03:11:19;98857.81;;;24.07;58.08
31239;BME280;17871;31.584;74.450;2023-03-13T03:13:53;98861.00;;;24.15;59.01
31239;BME280;17871;31.584;74.450;2023-03-13T03:16:24;98862.44;;;24.22;59.87
31239;BME280;17871;31.584;74.450;2023-03-13T03:18:53;98865.19;;;24.19;58.15
31239;BME280;17871;31.584;74.450;2023-03-13T03:21:22;98871.66;;;24.31;58.47
31239;BME280;17871;31.584;74.450;2023-03-13T03:23:51;98877.88;;;24.28;57.79
31239;BME280;17871;31.584;74.450;2023-03-13T03:26:20;98877.75;;;24.31;56.85
31239;BME280;17871;31.584;74.450;2023-03-13T03:28:50;98875.25;;;24.28;56.51
31239;BME280;17871;31.584;74.450;2023-03-13T03:31:19;98883.81;;;24.53;57.02
31239;BME280;17871;31.584;74.450;2023-03-13T03:33:48;98882.75;;;24.57;54.52
31239;BME280;17871;31.584;74.450;2023-03-13T03:36:20;98876.94;;;24.71;55.10
31239;BME280;17871;31.584;74.450;2023-03-13T03:38:50;98884.66;;;24.74;54.32
31239;BME280;17871;31.584;74.450;2023-03-13T03:41:24;98885.47;;;24.76;54.10
31239;BME280;17871;31.584;74.450;2023-03-13T03:43:54;98879.78;;;24.87;54.29
31239;BME280;17871;31.584;74.450;2023-03-13T03:46:29;98884.38;;;25.02;53.51
31239;BME280;17871;31.584;74.450;2023-03-13T03:48:58;98895.16;;;24.94;53.42
31239;BME280;17871;31.584;74.450;2023-03-13T03:51:27;98890.50;;;25.01;53.97
31239;BME280;17871;31.584;74.450;2023-03-13T03:53:56;98906.06;;;25.04;52.37
31239;BME280;17871;31.584;74.450;2023-03-13T03:56:27;98907.69;;;25.26;51.40
31239;BME280;17871;31.584;74.450;2023-03-13T03:58:58;98906.72;;;25.29;51.69
31239;BME280;17871;31.584;74.450;2023-03-13T04:01:59;98906.94;;;25.43;49.69
31239;BME280;17871;31.584;74.450;2023-03-13T04:04:30;98910.47;;;25.62;50.16
31239;BME280;17871;31.584;74.450;2023-03-13T04:07:21;98910.13;;;25.70;49.46
31239;BME280;17871;31.584;74.450;2023-03-13T04:09:50;98907.91;;;25.79;49.93
31239;BME280;17871;31.584;74.450;2023-03-13T04:12:25;98906.81;;;25.85;47.72
31239;BME280;17871;31.584;74.450;2023-03-13T04:14:55;98909.69;;;25.98;47.52
31239;BME280;17871;31.584;74.450;2023-03-13T04:17:24;98908.91;;;26.14;48.29
31239;BME280;17871;31.584;74.450;2023-03-13T04:19:56;98904.09;;;26.24;47.58
31239;BME280;17871;31.584;74.450;2023-03-13T04:22:29;98915.28;;;26.27;48.80
31239;BME280;17871;31.584;74.450;2023-03-13T04:24:59;98914.84;;;26.37;48.20
31239;BME280;17871;31.584;74.450;2023-03-13T04:27:31;98910.59;;;26.34;47.46
31239;BME280;17871;31.584;74.450;2023-03-13T04:30:01;98910.25;;;26.59;48.09
31239;BME280;17871;31.584;74.450;2023-03-13T04:32:51;98914.88;;;26.71;47.90
31239;BME280;17871;31.584;74.450;2023-03-13T04:35:46;98913.28;;;26.86;48.17
31239;BME280;17871;31.584;74.450;2023-03-13T04:38:44;98904.78;;;26.80;46.92
31239;BME280;17871;31.584;74.450;2023-03-13T04:41:30;98909.97;;;26.99;46.99
31239;BME280;17871;31.584;74.450;2023-03-13T04:44:14;98910.84;;;27.00;45.31
31239;BME280;17871;31.584;74.450;2023-03-13T04:46:55;98920.84;;;27.09;45.08
31239;BME280;17871;31.584;74.450;2023-03-13T04:49:47;98911.75;;;27.16;44.20
31239;BME280;17871;31.584;74.450;2023-03-13T04:52:29;98915.75;;;27.23;43.92
31239;BME280;17871;31.584;74.450;2023-03-13T04:54:58;98910.06;;;27.30;43.43
31239;BME280;17871;31.584;74.450;2023-03-13T04:57:38;98912.00;;;27.44;43.99
31239;BME280;17871;31.584;74.450;2023-03-13T05:00:33;98901.69;;;27.57;44.01
31239;BME280;17871;31.584;74.450;2023-03-13T05:03:31;98900.72;;;27.59;43.85
31239;BME280;17871;31.584;74.450;2023-03-13T05:06:20;98902.16;;;27.80;43.86
31239;BME280;17871;31.584;74.450;2023-03-13T05:09:08;98909.69;;;27.87;43.44
31239;BME280;17871;31.584;74.450;2023-03-13T05:11:57;98914.09;;;27.86;42.05
31239;BME280;17871;31.584;74.450;2023-03-13T05:14:49;98910.03;;;27.96;41.35
31239;BME280;17871;31.584;74.450;2023-03-13T05:17:36;98908.22;;;28.14;41.32
31239;BME280;17871;31.584;74.450;2023-03-13T05:20:18;98907.28;;;28.15;40.92
31239;BME280;17871;31.584;74.450;2023-03-13T05:23:05;98899.56;;;28.27;41.00
31239;BME280;17871;31.584;74.450;2023-03-13T05:26:00;98910.41;;;28.37;41.33
31239;BME280;17871;31.584;74.450;2023-03-13T05:28:51;98899.34;;;28.46;42.54
31239;BME280;17871;31.584;74.450;2023-03-13T05:31:38;98898.50;;;28.46;41.90
31239;BME280;17871;31.584;74.450;2023-03-13T05:34:27;98892.41;;;28.75;42.24
31239;BME280;17871;31.584;74.450;2023-03-13T05:37:25;98892.94;;;28.81;42.05
31239;BME280;17871;31.584;74.450;2023-03-13T05:40:23;98883.22;;;28.82;42.25
31239;BME280;17871;31.584;74.450;2023-03-13T05:43:11;98880.56;;;28.98;42.44
31239;BME280;17871;31.584;74.450;2023-03-13T05:45:58;98880.16;;;28.90;42.92
31239;BME280;17871;31.584;74.450;2023-03-13T05:48:53;98881.31;;;29.00;44.50
31239;BME280;17871;31.584;74.450;2023-03-13T05:51:47;98881.53;;;29.25;46.75
31239;BME280;17871;31.584;74.450;2023-03-13T05:54:30;98877.91;;;29.27;48.03
31239;BME280;17871;31.584;74.450;2023-03-13T05:57:17;98880.03;;;29.35;49.45
31239;BME280;17871;31.584;74.450;2023-03-13T05:59:59;98879.00;;;29.38;49.67
31239;BME280;17871;31.584;74.450;2023-03-13T06:03:01;98868.38;;;29.53;50.04
31239;BME280;17871;31.584;74.450;2023-03-13T06:05:35;98873.94;;;29.63;49.84
31239;BME280;17871;31.584;74.450;2023-03-13T06:08:12;98862.34;;;29.65;48.69
31239;BME280;17871;31.584;74.450;2023-03-13T06:10:41;98865.56;;;29.56;48.69
31239;BME280;17871;31.584;74.450;2023-03-13T06:13:10;98860.63;;;29.64;48.04
31239;BME280;17871;31.584;74.450;2023-03-13T06:15:53;98863.16;;;29.80;46.06
31239;BME280;17871;31.584;74.450;2023-03-13T06:18:39;98850.47;;;29.87;47.64
31239;BME280;17871;31.584;74.450;2023-03-13T06:21:08;98849.97;;;29.94;45.68
31239;BME280;17871;31.584;74.450;2023-03-13T06:23:37;98852.31;;;29.99;44.45
31239;BME280;17871;31.584;74.450;2023-03-13T06:26:06;98841.94;;;30.10;43.15
31239;BME280;17871;31.584;74.450;2023-03-13T06:28:34;98849.47;;;30.02;43.38
31239;BME280;17871;31.584;74.450;2023-03-13T06:31:06;98841.56;;;30.02;40.46
31239;BME280;17871;31.584;74.450;2023-03-13T06:33:35;98831.88;;;30.02;41.31
31239;BME280;17871;31.584;74.450;2023-03-13T06:36:04;98833.75;;;30.27;40.40
31239;BME280;17871;31.584;74.450;2023-03-13T06:38:33;98830.66;;;30.47;39.37
31239;BME280;17871;31.584;74.450;2023-03-13T06:41:03;98823.72;;;30.46;38.57
31239;BME280;17871;31.584;74.450;2023-03-13T06:43:31;98831.34;;;30.36;36.68
31239;BME280;17871;31.584;74.450;2023-03-13T06:46:04;98817.19;;;30.64;37.66
31239;BME280;17871;31.584;74.450;2023-03-13T06:48:33;98814.91;;;30.72;37.83
31239;BME280;17871;31.584;74.450;2023-03-13T06:51:02;98822.25;;;30.67;38.25
31239;BME280;17871;31.584;74.450;2023-03-13T06:53:31;98813.84;;;30.87;38.49
31239;BME280;17871;31.584;74.450;2023-03-13T06:56:00;98814.06;;;30.97;37.86
31239;BME280;17871;31.584;74.450;2023-03-13T06:58:29;98796.00;;;31.04;37.73
31239;BME280;17871;31.584;74.450;2023-03-13T07:01:04;98793.16;;;30.81;36.85
31239;BME280;17871;31.584;74.450;2023-03-13T07:03:34;98786.38;;;31.03;37.09
31239;BME280;17871;31.584;74.450;2023-03-13T07:06:03;98780.56;;;31.23;37.87
31239;BME280;17871;31.584;74.450;2023-03-13T07:08:33;98776.16;;;31.11;37.16
31239;BME280;17871;31.584;74.450;2023-03-13T07:11:04;98777.09;;;31.10;36.92
31239;BME280;17871;31.584;74.450;2023-03-13T07:13:34;98764.72;;;31.23;36.75
31239;BME280;17871;31.584;74.450;2023-03-13T07:16:04;98758.66;;;31.33;37.56
31239;BME280;17871;31.584;74.450;2023-03-13T07:18:34;98761.03;;;31.13;37.83
31239;BME280;17871;31.584;74.450;2023-03-13T07:21:03;98756.78;;;31.23;37.15
31239;BME280;17871;31.584;74.450;2023-03-13T07:23:33;98753.88;;;31.38;37.32
31239;BME280;17871;31.584;74.450;2023-03-13T07:26:04;98758.22;;;31.52;37.21
31239;BME280;17871;31.584;74.450;2023-03-13T07:28:33;98749.97;;;31.44;37.21
31239;BME280;17871;31.584;74.450;2023-03-13T07:33:36;98744.69;;;31.44;34.94
31239;BME280;17871;31.584;74.450;2023-03-13T07:36:05;98733.78;;;31.49;36.45
31239;BME280;17871;31.584;74.450;2023-03-13T07:39:12;98732.75;;;31.51;36.74
31239;BME280;17871;31.584;74.450;2023-03-13T07:41:41;98721.38;;;31.62;36.62
31239;BME280;17871;31.584;74.450;2023-03-13T07:44:14;98725.53;;;31.17;35.75
31239;BME280;17871;31.584;74.450;2023-03-13T07:46:43;98719.75;;;31.48;35.43
31239;BME280;17871;31.584;74.450;2023-03-13T07:49:11;98710.59;;;31.65;35.89
31239;BME280;17871;31.584;74.450;2023-03-13T07:51:40;98706.59;;;31.59;37.12
31239;BME280;17871;31.584;74.450;2023-03-13T07:54:10;98706.00;;;31.43;36.88
31239;BME280;17871;31.584;74.450;2023-03-13T07:56:39;98699.47;;;31.36;38.04
31239;BME280;17871;31.584;74.450;2023-03-13T07:59:07;98697.59;;;31.38;37.76
31239;BME280;17871;31.584;74.450;2023-03-13T08:01:36;98686.63;;;31.55;37.40
31239;BME280;17871;31.584;74.450;2023-03-13T08:04:05;98690.69;;;31.48;36.50
31239;BME280;17871;31.584;74.450;2023-03-13T08:06:34;98679.78;;;31.53;36.34
31239;BME280;17871;31.584;74.450;2023-03-13T08:09:07;98670.22;;;31.63;37.06
31239;BME280;17871;31.584;74.450;2023-03-13T08:11:37;98671.75;;;31.54;36.87
31239;BME280;17871;31.584;74.450;2023-03-13T08:14:05;98669.84;;;31.56;36.48
31239;BME280;17871;31.584;74.450;2023-03-13T08:16:34;98657.16;;;31.61;34.54
31239;BME280;17871;31.584;74.450;2023-03-13T08:24:54;98650.25;;;31.82;36.80
31239;BME280;17871;31.584;74.450;2023-03-13T08:27:43;98648.53;;;31.81;34.75
31239;BME280;17871;31.584;74.450;2023-03-13T08:30:35;98643.00;;;31.73;35.15
31239;BME280;17871;31.584;74.450;2023-03-13T08:33:24;98634.84;;;31.76;35.30
31239;BME280;17871;31.584;74.450;2023-03-13T08:36:14;98635.22;;;31.83;35.80
31239;BME280;17871;31.584;74.450;2023-03-13T08:39:14;98632.00;;;31.91;35.26
31239;BME280;17871;31.584;74.450;2023-03-13T08:41:43;98628.84;;;31.85;36.13
31239;BME280;17871;31.584;74.450;2023-03-13T08:44:13;98623.81;;;31.82;36.74
31239;BME280;17871;31.584;74.450;2023-03-13T08:48:41;98615.81;;;31.71;35.53
31239;BME280;17871;31.584;74.450;2023-03-13T08:51:12;98605.63;;;32.13;34.26
31239;BME280;17871;31.584;74.450;2023-03-13T08:53:43;98602.75;;;32.16;33.86
31239;BME280;17871;31.584;74.450;2023-03-13T08:56:17;98591.31;;;32.37;34.29
31239;BME280;17871;31.584;74.450;2023-03-13T08:58:56;98596.50;;;32.39;33.59
31239;BME280;17871;31.584;74.450;2023-03-13T09:01:29;98589.03;;;32.44;34.35
31239;BME280;17871;31.584;74.450;2023-03-13T09:03:59;98590.72;;;32.45;34.68
31239;BME280;17871;31.584;74.450;2023-03-13T09:06:34;98588.56;;;32.39;31.50
31239;BME280;17871;31.584;74.450;2023-03-13T09:09:06;98580.88;;;32.36;32.16
31239;BME280;17871;31.584;74.450;2023-03-13T09:11:37;98578.69;;;32.41;34.61
31239;BME280;17871;31.584;74.450;2023-03-13T09:14:07;98579.91;;;32.26;33.10
31239;BME280;17871;31.584;74.450;2023-03-13T09:16:36;98566.19;;;32.32;33.52
31239;BME280;17871;31.584;74.450;2023-03-13T09:19:05;98558.97;;;32.45;33.14
31239;BME280;17871;31.584;74.450;2023-03-13T09:21:34;98565.72;;;32.38;31.76
31239;BME280;17871;31.584;74.450;2023-03-13T09:24:04;98554.78;;;32.43;35.53
31239;BME280;17871;31.584;74.450;2023-03-13T09:26:33;98545.03;;;32.43;33.42
31239;BME280;17871;31.584;74.450;2023-03-13T09:29:01;98547.88;;;32.51;34.38
31239;BME280;17871;31.584;74.450;2023-03-13T09:31:31;98545.53;;;32.59;33.05
31239;BME280;17871;31.584;74.450;2023-03-13T09:34:01;98540.94;;;32.50;32.99
31239;BME280;17871;31.584;74.450;2023-03-13T09:36:30;98531.91;;;32.42;36.32
31239;BME280;17871;31.584;74.450;2023-03-13T09:38:59;98528.91;;;32.57;35.63
31239;BME280;17871;31.584;74.450;2023-03-13T09:41:53;98525.41;;;32.46;34.57
31239;BME280;17871;31.584;74.450;2023-03-13T09:44:30;98536.13;;;32.22;33.76
31239;BME280;17871;31.584;74.450;2023-03-13T09:50:06;98519.78;;;32.39;33.77
31239;BME280;17871;31.584;74.450;2023-03-13T09:52:39;98521.72;;;32.37;34.56
31239;BME280;17871;31.584;74.450;2023-03-13T09:57:57;98518.06;;;32.49;33.25
31239;BME280;17871;31.584;74.450;2023-03-13T10:00:39;98511.00;;;32.38;35.63
31239;BME280;17871;31.584;74.450;2023-03-13T10:03:34;98504.59;;;32.41;35.13
31239;BME280;17871;31.584;74.450;2023-03-13T10:06:18;98510.63;;;32.43;33.76
31239;BME280;17871;31.584;74.450;2023-03-13T10:08:48;98510.63;;;32.32;33.59
31239;BME280;17871;31.584;74.450;2023-03-13T10:11:38;98507.03;;;32.33;32.36
31239;BME280;17871;31.584;74.450;2023-03-13T10:14:34;98503.53;;;32.32;32.30
31239;BME280;17871;31.584;74.450;2023-03-13T10:17:21;98498.97;;;32.34;32.45
31239;BME280;17871;31.584;74.450;2023-03-13T10:22:55;98489.72;;;32.29;33.60
31239;BME280;17871;31.584;74.450;2023-03-13T10:25:36;98487.78;;;32.31;36.01
31239;BME280;17871;31.584;74.450;2023-03-13T10:28:14;98483.22;;;32.33;36.72
31239;BME280;17871;31.584;74.450;2023-03-13T10:30:49;98479.00;;;32.42;35.37
31239;BME280;17871;31.584;74.450;2023-03-13T10:33:25;98483.34;;;32.31;35.70
31239;BME280;17871;31.584;74.450;2023-03-13T10:38:32;98487.91;;;32.18;30.29
31239;BME280;17871;31.584;74.450;2023-03-13T10:41:30;98488.53;;;32.22;31.21
31239;BME280;17871;31.584;74.450;2023-03-13T10:44:06;98493.69;;;32.12;31.87
31239;BME280;17871;31.584;74.450;2023-03-13T10:46:40;98478.78;;;32.22;31.19
31239;BME280;17871;31.584;74.450;2023-03-13T10:49:18;98482.16;;;32.13;31.89
31239;BME280;17871;31.584;74.450;2023-03-13T10:51:57;98478.44;;;32.16;35.47
31239;BME280;17871;31.584;74.450;2023-03-13T10:54:28;98479.88;;;31.98;37.93
31239;BME280;17871;31.584;74.450;2023-03-13T10:59:51;98475.28;;;31.88;36.96
31239;BME280;17871;31.584;74.450;2023-03-13T11:02:33;98470.84;;;31.89;36.50
31239;BME280;17871;31.584;74.450;2023-03-13T11:07:54;98469.66;;;31.71;35.83
31239;BME280;17871;31.584;74.450;2023-03-13T11:10:29;98471.19;;;31.73;35.22
31239;BME280;17871;31.584;74.450;2023-03-13T11:12:59;98471.53;;;31.69;36.49
31239;BME280;17871;31.584;74.450;2023-03-13T11:15:34;98471.59;;;31.45;37.97
31239;BME280;17871;31.584;74.450;2023-03-13T11:20:43;98467.69;;;31.62;36.71
31239;BME280;17871;31.584;74.450;2023-03-13T11:23:26;98466.13;;;31.59;36.41
31239;BME280;17871;31.584;74.450;2023-03-13T11:28:57;98461.09;;;31.67;37.22
31239;BME280;17871;31.584;74.450;2023-03-13T11:31:43;98454.25;;;31.54;36.47
31239;BME280;17871;31.584;74.450;2023-03-13T11:34:48;98451.38;;;31.57;36.53
31239;BME280;17871;31.584;74.450;2023-03-13T11:37:20;98439.88;;;31.45;37.20
31239;BME280;17871;31.584;74.450;2023-03-13T11:54:21;98439.09;;;31.10;39.25
31239;BME280;17871;31.584;74.450;2023-03-13T11:56:56;98439.47;;;31.16;39.22
31239;BME280;17871;31.584;74.450;2023-03-13T11:59:44;98442.88;;;31.18;38.80
31239;BME280;17871;31.584;74.450;2023-03-13T12:05:23;98442.72;;;31.20;40.08
31239;BME280;17871;31.584;74.450;2023-03-13T12:08:02;98440.28;;;31.06;39.83
31239;BME280;17871;31.584;74.450;2023-03-13T12:10:40;98443.41;;;31.00;38.72
31239;BME280;17871;31.584;74.450;2023-03-13T12:13:48;98441.94;;;30.96;39.27
31239;BME280;17871;31.584;74.450;2023-03-13T12:16:18;98441.72;;;30.99;38.53
31239;BME280;17871;31.584;74.450;2023-03-13T12:18:49;98445.31;;;30.98;38.73
31239;BME280;17871;31.584;74.450;2023-03-13T12:21:50;98447.22;;;30.96;38.13
31239;BME280;17871;31.584;74.450;2023-03-13T12:26:59;98447.88;;;30.86;39.38
31239;BME280;17871;31.584;74.450;2023-03-13T12:38:21;98450.75;;;30.60;40.34
31239;BME280;17871;31.584;74.450;2023-03-13T12:43:39;98449.63;;;30.51;41.39
31239;BME280;17871;31.584;74.450;2023-03-13T12:46:34;98459.88;;;30.43;42.25
31239;BME280;17871;31.584;74.450;2023-03-13T12:49:22;98464.00;;;30.47;42.62
31239;BME280;17871;31.584;74.450;2023-03-13T12:55:23;98465.38;;;30.40;44.18
31239;BME280;17871;31.584;74.450;2023-03-13T13:00:52;98467.97;;;30.16;45.37
31239;BME280;17871;31.584;74.450;2023-03-13T13:07:13;98478.13;;;30.10;46.08
31239;BME280;17871;31.584;74.450;2023-03-13T13:10:14;98472.63;;;30.00;47.20
31239;BME280;17871;31.584;74.450;2023-03-13T13:15:47;98469.91;;;29.76;47.40
31239;BME280;17871;31.584;74.450;2023-03-13T13:18:28;98467.59;;;29.72;47.69
31239;BME280;17871;31.584;74.450;2023-03-13T13:23:35;98470.22;;;29.59;47.91
31239;BME280;17871;31.584;74.450;2023-03-13T13:28:58;98470.75;;;29.39;48.35
31239;BME280;17871;31.584;74.450;2023-03-13T13:39:52;98496.44;;;29.09;50.10
31239;BME280;17871;31.584;74.450;2023-03-13T13:45:03;98509.16;;;29.02;51.50
31239;BME280;17871;31.584;74.450;2023-03-13T13:47:33;98509.81;;;29.06;51.43
31239;BME280;17871;31.584;74.450;2023-03-13T13:50:02;98506.66;;;29.01;51.83
31239;BME280;17871;31.584;74.450;2023-03-13T13:52:41;98513.25;;;28.94;53.42
31239;BME280;17871;31.584;74.450;2023-03-13T13:58:05;98513.03;;;28.84;53.66
31239;BME280;17871;31.584;74.450;2023-03-13T14:03:30;98517.91;;;28.76;54.99
31239;BME280;17871;31.584;74.450;2023-03-13T14:06:02;98518.41;;;28.68;54.94
31239;BME280;17871;31.584;74.450;2023-03-13T14:08:40;98516.13;;;28.62;55.60
31239;BME280;17871;31.584;74.450;2023-03-13T14:14:13;98524.75;;;28.52;57.97
31239;BME280;17871;31.584;74.450;2023-03-13T14:16:50;98529.44;;;28.47;58.29
31239;BME280;17871;31.584;74.450;2023-03-13T14:19:34;98538.34;;;28.44;58.56
31239;BME280;17871;31.584;74.450;2023-03-13T14:22:09;98536.84;;;28.40;58.90
31239;BME280;17871;31.584;74.450;2023-03-13T14:24:39;98544.56;;;28.29;59.41
31239;BME280;17871;31.584;74.450;2023-03-13T14:27:18;98546.06;;;28.33;59.65
31239;BME280;17871;31.584;74.450;2023-03-13T14:30:06;98547.19;;;28.29;59.38
31239;BME280;17871;31.584;74.450;2023-03-13T14:32:39;98545.13;;;28.20;59.74
31239;BME280;17871;31.584;74.450;2023-03-13T14:35:10;98553.88;;;28.20;59.28
31239;BME280;17871;31.584;74.450;2023-03-13T14:37:49;98548.72;;;28.19;59.65
31239;BME280;17871;31.584;74.450;2023-03-13T14:40:21;98545.72;;;28.11;59.97
31239;BME280;17871;31.584;74.450;2023-03-13T14:42:59;98556.41;;;28.08;60.24
31239;BME280;17871;31.584;74.450;2023-03-13T14:45:37;98555.91;;;28.01;60.52
31239;BME280;17871;31.584;74.450;2023-03-13T14:51:02;98567.06;;;27.91;60.63
31239;BME280;17871;31.584;74.450;2023-03-13T14:54:00;98570.44;;;27.78;61.82
31239;BME280;17871;31.584;74.450;2023-03-13T14:56:37;98571.00;;;27.69;62.16
31239;BME280;17871;31.584;74.450;2023-03-13T14:59:16;98577.44;;;27.64;62.34
31239;BME280;17871;31.584;74.450;2023-03-13T15:01:45;98574.91;;;27.62;61.83
31239;BME280;17871;31.584;74.450;2023-03-13T15:04:14;98570.66;;;27.60;62.38
31239;BME280;17871;31.584;74.450;2023-03-13T15:06:43;98565.78;;;27.54;62.69
31239;BME280;17871;31.584;74.450;2023-03-13T15:09:20;98575.28;;;27.56;62.34
31239;BME280;17871;31.584;74.450;2023-03-13T15:11:56;98571.03;;;27.54;62.48
31239;BME280;17871;31.584;74.450;2023-03-13T15:14:38;98565.09;;;27.50;62.98
31239;BME280;17871;31.584;74.450;2023-03-13T15:17:20;98558.38;;;27.46;62.57
31239;BME280;17871;31.584;74.450;2023-03-13T15:19:55;98561.22;;;27.42;63.02
31239;BME280;17871;31.584;74.450;2023-03-13T15:22:30;98564.63;;;27.28;63.73
31239;BME280;17871;31.584;74.450;2023-03-13T15:24:59;98565.00;;;27.22;64.00
31239;BME280;17871;31.584;74.450;2023-03-13T15:27:34;98564.25;;;27.20;63.96
31239;BME280;17871;31.584;74.450;2023-03-13T15:30:03;98569.00;;;27.13;64.24
31239;BME280;17871;31.584;74.450;2023-03-13T15:32:37;98561.13;;;27.13;64.13
31239;BME280;17871;31.584;74.450;2023-03-13T15:35:28;98568.03;;;27.14;64.14